Time;durP1;ratioP1;P1;durP2;ratioP2;P2;SDS_P1;SDS_P2;PMS_P1;PMS_P2;Temp;Humidity;BMP_temperature;BMP_pressure;BME280_temperature;BME280_humidity;BME280_pressure;Samples;Min_cycle;Max_cycle;Signal;HPM_P1;HPM_P2
2023/12/09 00:00:21;;;;;;;53.97;14.63;;;7.80;99.90;;;;;;5080132;28;20574;-72
2023/12/09 00:02:46;;;;;;;44.60;14.70;;;7.80;99.90;;;;;;5066327;28;20040;-72
2023/12/09 00:05:17;;;;;;;37.23;13.40;;;7.80;99.90;;;;;;5080967;28;20413;-72
2023/12/09 00:07:42;;;;;;;43.15;13.77;;;7.80;99.90;;;;;;5075917;28;20503;-72
2023/12/09 00:10:09;;;;;;;58.27;14.73;;;7.80;99.90;;;;;;5075051;28;20032;-72
2023/12/09 00:12:34;;;;;;;41.17;13.15;;;7.90;99.90;;;;;;5082146;28;20135;-72
2023/12/09 00:15:04;;;;;;;41.80;13.37;;;7.90;99.90;;;;;;5077684;28;20058;-72
2023/12/09 00:17:29;;;;;;;43.17;13.50;;;7.90;99.90;;;;;;5089635;28;20047;-72
2023/12/09 00:20:00;;;;;;;41.93;12.07;;;7.90;99.90;;;;;;5070383;28;20417;-71
2023/12/09 00:22:26;;;;;;;35.53;12.75;;;7.90;99.90;;;;;;5073542;28;20047;-72
2023/12/09 00:24:52;;;;;;;46.37;12.47;;;7.90;99.90;;;;;;5090642;28;20503;-72
2023/12/09 00:27:17;;;;;;;33.22;13.20;;;7.80;99.90;;;;;;5082080;28;20033;-72
2023/12/09 00:29:43;;;;;;;45.90;14.17;;;7.90;99.90;;;;;;5085190;28;20052;-72
2023/12/09 00:32:08;;;;;;;43.03;14.13;;;7.90;99.90;;;;;;5075534;28;20087;-72
2023/12/09 00:34:35;;;;;;;46.13;13.27;;;7.90;99.90;;;;;;5079395;28;20453;-72
2023/12/09 00:37:00;;;;;;;42.92;14.13;;;7.90;99.90;;;;;;5084304;28;20385;-72
2023/12/09 00:39:28;;;;;;;46.20;13.90;;;7.90;99.90;;;;;;5074784;28;20051;-72
2023/12/09 00:41:56;;;;;;;35.95;12.30;;;7.90;99.90;;;;;;5069496;28;20109;-72
2023/12/09 00:44:22;;;;;;;31.77;12.45;;;7.90;99.90;;;;;;5088132;28;20059;-72
2023/12/09 00:46:48;;;;;;;42.90;14.63;;;7.90;99.90;;;;;;5084507;28;20067;-72
2023/12/09 00:49:13;;;;;;;39.63;11.37;;;7.90;99.90;;;;;;5092121;28;20089;-72
2023/12/09 00:51:42;;;;;;;33.17;11.25;;;7.90;99.90;;;;;;5075424;28;20050;-71
2023/12/09 00:54:07;;;;;;;34.27;12.10;;;7.90;99.90;;;;;;5089301;28;20675;-71
2023/12/09 00:56:33;;;;;;;51.83;12.90;;;7.90;99.90;;;;;;5082971;28;20044;-71
2023/12/09 00:59:01;;;;;;;42.23;12.90;;;7.90;99.90;;;;;;5088884;28;20484;-71
2023/12/09 01:01:26;;;;;;;32.85;11.50;;;7.90;99.90;;;;;;5083598;28;20046;-71
2023/12/09 01:03:52;;;;;;;35.80;10.93;;;7.80;99.90;;;;;;5087849;28;20039;-71
2023/12/09 01:06:20;;;;;;;40.97;11.53;;;7.80;99.90;;;;;;5081775;28;20048;-71
2023/12/09 01:08:48;;;;;;;38.30;12.18;;;7.90;99.90;;;;;;5088903;28;20089;-71
2023/12/09 01:11:17;;;;;;;34.40;11.77;;;7.80;99.90;;;;;;5066096;28;20028;-71
2023/12/09 01:13:43;;;;;;;26.37;12.00;;;7.90;99.90;;;;;;5082623;28;20094;-71
2023/12/09 01:16:09;;;;;;;31.20;11.55;;;7.90;99.90;;;;;;5081609;28;20040;-71
2023/12/09 01:18:34;;;;;;;35.00;12.35;;;7.90;99.90;;;;;;5087685;28;20055;-71
2023/12/09 01:21:00;;;;;;;32.37;11.93;;;7.90;99.90;;;;;;5077626;28;20119;-71
2023/12/09 01:23:26;;;;;;;37.27;12.40;;;7.80;99.90;;;;;;5079591;28;20043;-71
2023/12/09 01:25:53;;;;;;;33.17;11.53;;;7.90;99.90;;;;;;5075452;28;20050;-72
2023/12/09 01:28:19;;;;;;;40.65;11.48;;;7.80;99.90;;;;;;5078624;28;21096;-71
2023/12/09 01:30:45;;;;;;;39.80;11.80;;;7.80;99.90;;;;;;5081119;28;20044;-72
2023/12/09 01:33:11;;;;;;;32.10;10.95;;;7.80;99.90;;;;;;5080417;28;20044;-71
2023/12/09 01:35:36;;;;;;;31.30;10.77;;;7.80;99.90;;;;;;5076946;28;20032;-71
2023/12/09 01:38:04;;;;;;;35.17;10.93;;;7.80;99.90;;;;;;5082927;28;20032;-72
2023/12/09 01:40:32;;;;;;;31.45;10.40;;;7.80;99.90;;;;;;5066954;28;20401;-71
2023/12/09 01:42:58;;;;;;;37.67;10.70;;;7.80;99.90;;;;;;5075904;28;20044;-71
2023/12/09 01:45:24;;;;;;;28.33;9.27;;;7.80;99.90;;;;;;5086540;28;20151;-72
2023/12/09 01:47:49;;;;;;;33.37;11.37;;;7.80;99.90;;;;;;5085131;28;20234;-71
2023/12/09 01:50:16;;;;;;;32.93;11.17;;;7.80;99.90;;;;;;5081320;28;20058;-71
2023/12/09 01:52:45;;;;;;;35.83;10.38;;;7.80;99.90;;;;;;5078042;28;20081;-71
2023/12/09 01:55:12;;;;;;;38.53;9.90;;;7.80;99.90;;;;;;5079834;28;20425;-71
2023/12/09 01:57:37;;;;;;;;;;;7.80;99.90;;;;;;5062591;28;20051;-71
2023/12/09 02:00:04;;;;;;;29.42;10.30;;;7.80;99.90;;;;;;5075487;28;19916;-71
2023/12/09 02:02:30;;;;;;;;;;;7.80;99.90;;;;;;5061916;28;20088;-72
2023/12/09 02:04:59;;;;;;;36.85;9.52;;;7.80;99.90;;;;;;5080071;28;19920;-71
2023/12/09 02:07:27;;;;;;;23.58;9.90;;;7.80;99.90;;;;;;5064286;28;20404;-71
2023/12/09 02:09:53;;;;;;;35.70;11.77;;;7.80;99.90;;;;;;5084779;28;20048;-71
2023/12/09 02:12:29;;;;;;;29.13;10.00;;;7.80;99.90;;;;;;5092383;28;20028;-71
2023/12/09 02:15:37;;;;;;;27.35;10.55;;;7.80;99.90;;;;;;5080122;28;20041;-71
2023/12/09 02:18:07;;;;;;;39.22;10.25;;;7.80;99.90;;;;;;5086589;28;20048;-71
2023/12/09 02:20:33;;;;;;;36.08;12.07;;;7.70;99.90;;;;;;5079583;28;20086;-71
2023/12/09 02:23:06;;;;;;;34.63;10.80;;;7.70;99.90;;;;;;5077760;28;20492;-72
2023/12/09 02:25:32;;;;;;;27.65;10.35;;;7.70;99.90;;;;;;5062941;28;20048;-71
2023/12/09 02:28:00;;;;;;;39.20;10.75;;;7.70;99.90;;;;;;5081357;28;20512;-71
2023/12/09 02:30:53;;;;;;;35.75;10.82;;;7.70;99.90;;;;;;5075163;28;20557;-71
2023/12/09 02:33:21;;;;;;;36.88;10.90;;;7.70;99.90;;;;;;5094476;28;20039;-71
2023/12/09 02:35:49;;;;;;;27.10;11.15;;;7.70;99.90;;;;;;5083781;28;20036;-72
2023/12/09 02:38:16;;;;;;;32.67;10.98;;;7.70;99.90;;;;;;5083801;28;20052;-71
2023/12/09 02:40:49;;;;;;;35.22;9.73;;;7.70;99.90;;;;;;5074955;28;20097;-71
2023/12/09 02:43:18;;;;;;;30.63;10.50;;;7.70;99.90;;;;;;5079208;28;20044;-72
2023/12/09 02:45:47;;;;;;;33.53;10.80;;;7.70;99.90;;;;;;5081945;28;20040;-71
2023/12/09 02:48:12;;;;;;;28.33;10.17;;;7.60;99.90;;;;;;5089172;28;20393;-71
2023/12/09 02:50:41;;;;;;;30.67;11.37;;;7.60;99.90;;;;;;5057963;28;20834;-71
2023/12/09 02:53:07;;;;;;;40.55;10.82;;;7.60;99.90;;;;;;5085969;28;20047;-71
2023/12/09 02:55:32;;;;;;;24.43;9.30;;;7.60;99.90;;;;;;5078301;28;20282;-71
2023/12/09 02:57:58;;;;;;;28.47;10.93;;;7.60;99.90;;;;;;5081779;28;20507;-71
2023/12/09 03:00:24;;;;;;;22.40;9.83;;;7.60;99.90;;;;;;5058939;28;20134;-71
2023/12/09 03:02:49;;;;;;;38.92;10.63;;;7.60;99.90;;;;;;5080047;28;20048;-71
2023/12/09 03:05:15;;;;;;;35.00;11.63;;;7.60;99.90;;;;;;5079954;28;20036;-71
2023/12/09 03:07:41;;;;;;;27.20;11.17;;;7.60;99.90;;;;;;5080560;28;20033;-71
2023/12/09 03:10:06;;;;;;;33.43;10.20;;;7.60;99.90;;;;;;5082996;28;20127;-72
2023/12/09 03:12:32;;;;;;;41.75;11.80;;;7.60;99.90;;;;;;5081174;28;20044;-71
2023/12/09 03:14:58;;;;;;;24.70;9.33;;;7.60;99.90;;;;;;5083985;28;20420;-71
2023/12/09 03:17:24;;;;;;;25.07;9.83;;;7.50;99.90;;;;;;5090673;28;20040;-71
2023/12/09 03:19:52;;;;;;;32.38;10.77;;;7.50;99.90;;;;;;5080126;28;20037;-71
2023/12/09 03:22:18;;;;;;;29.83;9.95;;;7.50;99.90;;;;;;5074812;28;20044;-71
2023/12/09 03:24:43;;;;;;;44.83;11.47;;;7.50;99.90;;;;;;5076824;28;20040;-71
2023/12/09 03:27:12;;;;;;;28.30;10.37;;;7.40;99.90;;;;;;5067918;28;20529;-71
2023/12/09 03:29:37;;;;;;;27.45;10.30;;;7.40;99.90;;;;;;5079938;28;20036;-71
2023/12/09 03:32:03;;;;;;;32.23;10.37;;;7.40;99.90;;;;;;5088082;28;20626;-71
2023/12/09 03:34:29;;;;;;;29.55;9.23;;;7.30;99.90;;;;;;5076927;28;20036;-72
2023/12/09 03:36:54;;;;;;;31.97;10.13;;;7.30;99.90;;;;;;5083108;28;20056;-72
2023/12/09 03:39:20;;;;;;;32.50;9.33;;;7.30;99.90;;;;;;5077129;28;20048;-72
2023/12/09 03:41:45;;;;;;;29.63;10.43;;;7.40;99.90;;;;;;5088466;28;20071;-72
2023/12/09 03:44:14;;;;;;;30.87;9.60;;;7.30;99.90;;;;;;5083380;28;20047;-72
2023/12/09 03:46:40;;;;;;;38.10;11.63;;;7.40;99.90;;;;;;5069477;28;20048;-72
2023/12/09 03:49:06;;;;;;;30.17;9.77;;;7.30;99.90;;;;;;5074307;28;20054;-72
2023/12/09 03:51:34;;;;;;;27.08;10.25;;;7.30;99.90;;;;;;5083206;28;20039;-72
2023/12/09 03:54:00;;;;;;;33.73;11.23;;;7.30;99.90;;;;;;5081533;28;20427;-73
2023/12/09 03:56:25;;;;;;;32.80;10.47;;;7.30;99.90;;;;;;5079031;28;20059;-72
2023/12/09 03:58:51;;;;;;;24.20;9.97;;;7.30;99.90;;;;;;5079226;28;20082;-72
2023/12/09 04:01:17;;;;;;;31.87;10.83;;;7.30;99.90;;;;;;5074224;28;20465;-72
2023/12/09 04:03:42;;;;;;;33.63;10.47;;;7.40;99.90;;;;;;5080122;28;20047;-71
2023/12/09 04:06:08;;;;;;;29.13;8.87;;;7.30;99.90;;;;;;5063907;28;20047;-72
2023/12/09 04:08:34;;;;;;;26.23;9.07;;;7.30;99.90;;;;;;5083542;28;20055;-72
2023/12/09 04:10:59;;;;;;;27.57;9.63;;;7.30;99.90;;;;;;5081428;28;20048;-72
2023/12/09 04:13:27;;;;;;;26.43;9.47;;;7.40;99.90;;;;;;5055914;28;20807;-72
2023/12/09 04:15:52;;;;;;;30.17;10.15;;;7.40;99.90;;;;;;5067178;28;20131;-72
2023/12/09 04:18:18;;;;;;;34.07;10.60;;;7.30;99.90;;;;;;5076044;28;20123;-72
2023/12/09 04:20:44;;;;;;;22.47;8.70;;;7.40;99.90;;;;;;5075456;28;20043;-72
2023/12/09 04:23:09;;;;;;;26.93;8.80;;;7.40;99.90;;;;;;5086496;28;20040;-72
2023/12/09 04:25:35;;;;;;;25.13;9.37;;;7.40;99.90;;;;;;5083864;28;20036;-72
2023/12/09 04:28:01;;;;;;;27.05;9.95;;;7.40;99.90;;;;;;5093051;28;20047;-72
2023/12/09 04:30:28;;;;;;;26.40;9.30;;;7.40;99.90;;;;;;5093804;28;20436;-72
2023/12/09 04:32:56;;;;;;;27.05;9.95;;;7.40;99.90;;;;;;5086659;28;20043;-72
2023/12/09 04:35:21;;;;;;;25.90;9.27;;;7.40;99.90;;;;;;5069903;28;20043;-72
2023/12/09 04:37:47;;;;;;;28.87;9.60;;;7.50;99.90;;;;;;5086790;28;20028;-71
2023/12/09 04:40:12;;;;;;;24.60;9.63;;;7.40;99.90;;;;;;5081664;28;20148;-72
2023/12/09 04:42:49;;;;;;;26.25;8.82;;;7.40;99.90;;;;;;5080944;28;20040;-72
2023/12/09 04:45:15;;;;;;;34.80;9.55;;;7.50;99.90;;;;;;5081561;28;20040;-72
2023/12/09 04:47:43;;;;;;;26.90;8.77;;;7.50;99.90;;;;;;5079265;28;20032;-71
2023/12/09 04:50:10;;;;;;;34.90;9.23;;;7.50;99.90;;;;;;5076029;28;20165;-72
2023/12/09 04:52:36;;;;;;;26.42;9.40;;;7.50;99.90;;;;;;5084234;28;20040;-72
2023/12/09 04:55:03;;;;;;;21.63;9.50;;;7.50;99.90;;;;;;5065243;28;20055;-72
2023/12/09 04:57:32;;;;;;;22.10;9.40;;;7.50;99.90;;;;;;5081430;28;20594;-72
2023/12/09 04:59:57;;;;;;;31.65;11.73;;;7.50;99.90;;;;;;5091534;28;20104;-72
2023/12/09 05:02:26;;;;;;;30.93;10.67;;;7.50;99.90;;;;;;5071938;28;20040;-72
2023/12/09 05:04:52;;;;;;;23.67;9.00;;;7.50;99.90;;;;;;5084318;28;20216;-72
2023/12/09 05:07:18;;;;;;;;;;;7.60;99.90;;;;;;5079316;28;20113;-72
2023/12/09 05:09:44;;;;;;;20.48;8.27;;;7.50;99.90;;;;;;5085102;28;19915;-72
2023/12/09 05:12:09;;;;;;;21.17;8.70;;;7.60;99.90;;;;;;5077565;28;20049;-72
2023/12/09 05:14:35;;;;;;;27.97;10.23;;;7.60;99.90;;;;;;5083745;28;20717;-72
2023/12/09 05:17:04;;;;;;;26.08;8.65;;;7.60;99.90;;;;;;5092874;28;20035;-72
2023/12/09 05:19:29;;;;;;;23.97;9.47;;;7.60;99.90;;;;;;5082283;28;20043;-72
2023/12/09 05:21:55;;;;;;;30.67;9.87;;;7.60;99.90;;;;;;5062292;28;20067;-72
2023/12/09 05:24:20;;;;;;;25.30;8.33;;;7.60;99.90;;;;;;5078439;28;20503;-72
2023/12/09 05:26:49;;;;;;;29.87;8.57;;;7.60;99.90;;;;;;5084008;28;20036;-72
2023/12/09 05:29:14;;;;;;;29.27;9.07;;;7.60;99.90;;;;;;5077341;28;20040;-72
2023/12/09 05:31:41;;;;;;;28.98;9.40;;;7.60;99.90;;;;;;5077518;28;20044;-72
2023/12/09 05:34:07;;;;;;;18.23;7.87;;;7.60;99.90;;;;;;5085675;28;20043;-72
2023/12/09 05:36:33;;;;;;;23.58;10.27;;;7.60;99.90;;;;;;5087339;28;20122;-71
2023/12/09 05:38:58;;;;;;;28.00;8.13;;;7.60;99.90;;;;;;5084783;28;20405;-71
2023/12/09 05:41:25;;;;;;;21.92;8.48;;;7.50;99.90;;;;;;5085926;28;20101;-71
2023/12/09 05:43:50;;;;;;;26.83;8.75;;;7.60;99.90;;;;;;5064291;28;20071;-71
2023/12/09 05:46:20;;;;;;;33.40;9.67;;;7.60;99.90;;;;;;5080974;28;20044;-71
2023/12/09 05:48:47;;;;;;;23.75;7.82;;;7.60;99.90;;;;;;5083002;28;20036;-71
2023/12/09 05:51:13;;;;;;;22.88;8.02;;;7.50;99.90;;;;;;5085661;28;20044;-71
2023/12/09 05:53:40;;;;;;;25.80;8.77;;;7.50;99.90;;;;;;5081852;28;20044;-71
2023/12/09 05:56:11;;;;;;;25.50;8.25;;;7.50;99.90;;;;;;5081496;28;20044;-72
2023/12/09 05:58:39;;;;;;;19.33;7.78;;;7.40;99.90;;;;;;5100893;28;20044;-71
2023/12/09 06:01:05;;;;;;;26.88;8.45;;;7.50;99.90;;;;;;5080986;28;20412;-71
2023/12/09 06:03:31;;;;;;;;;;;7.40;99.90;;;;;;5085859;28;20131;-71
2023/12/09 06:05:57;;;;;;;24.27;7.93;;;7.40;99.90;;;;;;5087409;28;20041;-72
2023/12/09 06:08:23;;;;;;;22.25;8.00;;;7.40;99.90;;;;;;5084385;28;20149;-72
2023/12/09 06:10:49;;;;;;;21.75;8.35;;;7.40;99.90;;;;;;5083513;28;20523;-72
2023/12/09 06:13:15;;;;;;;30.38;8.38;;;7.40;99.90;;;;;;5080810;28;20048;-72
2023/12/09 06:15:41;;;;;;;22.33;9.00;;;7.30;99.90;;;;;;5087194;28;20126;-71
2023/12/09 06:18:06;;;;;;;29.77;8.80;;;7.30;99.90;;;;;;5082480;28;20135;-71
2023/12/09 06:20:32;;;;;;;22.87;7.73;;;7.30;99.90;;;;;;5084569;28;20322;-72
2023/12/09 06:22:58;;;;;;;18.47;7.37;;;7.30;99.90;;;;;;5062533;28;20062;-71
2023/12/09 06:25:26;;;;;;;24.83;9.50;;;7.30;99.90;;;;;;5064058;28;20507;-71
2023/12/09 06:27:54;;;;;;;26.60;7.05;;;7.30;99.90;;;;;;5079993;28;20031;-71
2023/12/09 06:30:20;;;;;;;18.90;7.37;;;7.30;99.90;;;;;;5074394;28;20046;-71
2023/12/09 06:32:45;;;;;;;30.08;8.38;;;7.20;99.90;;;;;;5087691;28;20510;-71
2023/12/09 06:35:13;;;;;;;31.30;7.40;;;7.20;99.90;;;;;;5082086;28;20504;-71
2023/12/09 06:37:42;;;;;;;20.40;7.80;;;7.20;99.90;;;;;;5081308;28;20389;-71
2023/12/09 06:40:08;;;;;;;25.43;7.47;;;7.30;99.90;;;;;;5095180;28;20051;-72
2023/12/09 06:42:38;;;;;;;18.92;7.15;;;7.20;99.90;;;;;;5079605;28;20103;-71
2023/12/09 06:45:04;;;;;;;14.73;6.68;;;7.20;99.90;;;;;;5077609;28;20558;-71
2023/12/09 06:47:29;;;;;;;22.23;7.07;;;7.20;99.90;;;;;;5085067;28;20036;-71
2023/12/09 06:49:58;;;;;;;34.93;8.67;;;7.20;99.90;;;;;;5083960;28;20362;-71
2023/12/09 06:52:24;;;;;;;26.60;6.90;;;7.20;99.90;;;;;;5059379;28;20040;-72
2023/12/09 06:54:49;;;;;;;19.10;6.73;;;7.20;99.90;;;;;;5076586;28;20516;-72
2023/12/09 06:57:15;;;;;;;21.13;7.03;;;7.20;99.90;;;;;;5091473;28;20445;-71
2023/12/09 06:59:41;;;;;;;18.97;8.03;;;7.20;99.90;;;;;;5089313;28;20043;-71
2023/12/09 07:02:09;;;;;;;22.70;7.18;;;7.20;99.90;;;;;;5072323;28;20044;-71
2023/12/09 07:04:40;;;;;;;16.15;6.82;;;7.20;99.90;;;;;;5083050;28;20044;-71
2023/12/09 07:07:06;;;;;;;31.05;8.18;;;7.20;99.90;;;;;;5082161;28;20597;-71
2023/12/09 07:09:35;;;;;;;23.60;6.10;;;7.20;99.90;;;;;;5075268;28;20043;-71
2023/12/09 07:12:00;;;;;;;20.20;6.78;;;7.20;99.90;;;;;;5089619;28;20051;-71
2023/12/09 07:14:26;;;;;;;17.93;6.57;;;7.30;99.90;;;;;;5087957;28;20032;-72
2023/12/09 07:16:51;;;;;;;21.93;7.57;;;7.20;99.90;;;;;;5084524;28;20063;-72
2023/12/09 07:19:17;;;;;;;20.00;7.27;;;7.20;99.90;;;;;;5080083;28;20127;-71
2023/12/09 07:21:42;;;;;;;22.97;6.80;;;7.20;99.90;;;;;;5088676;28;20042;-71
2023/12/09 07:24:09;;;;;;;20.00;7.35;;;7.20;99.90;;;;;;5090665;28;20071;-71
2023/12/09 07:26:35;;;;;;;18.80;7.40;;;7.20;99.90;;;;;;5084919;28;20075;-70
2023/12/09 07:29:05;;;;;;;23.47;6.30;;;7.20;99.90;;;;;;5083367;28;20045;-70
2023/12/09 07:31:34;;;;;;;20.70;7.32;;;7.20;99.90;;;;;;5080880;28;20076;-71
2023/12/09 07:33:59;;;;;;;27.10;7.45;;;7.20;99.90;;;;;;5071391;28;20109;-71
2023/12/09 07:36:25;;;;;;;25.70;7.67;;;7.20;99.90;;;;;;5083888;28;20044;-71
2023/12/09 07:38:50;;;;;;;21.00;6.67;;;7.20;99.90;;;;;;5083586;28;20063;-71
2023/12/09 07:41:16;;;;;;;30.33;6.83;;;7.20;99.90;;;;;;5086024;28;20412;-71
2023/12/09 07:43:44;;;;;;;24.10;6.77;;;7.20;99.90;;;;;;5057028;28;20532;-71
2023/12/09 07:46:15;;;;;;;25.38;7.15;;;7.20;99.90;;;;;;5096442;28;20067;-71
2023/12/09 07:48:44;;;;;;;18.20;5.68;;;7.20;99.90;;;;;;5081587;28;20036;-71
2023/12/09 07:51:09;;;;;;;17.55;5.93;;;7.20;99.90;;;;;;5081639;28;20047;-72
2023/12/09 07:53:35;;;;;;;19.47;5.70;;;7.20;99.90;;;;;;5079966;28;20044;-71
2023/12/09 07:56:00;;;;;;;20.23;5.30;;;7.20;99.90;;;;;;5089593;28;20492;-71
2023/12/09 07:58:29;;;;;;;16.90;5.00;;;7.20;99.90;;;;;;5083734;28;20326;-71
2023/12/09 08:00:54;;;;;;;24.05;5.80;;;7.20;99.90;;;;;;5079370;28;20043;-72
2023/12/09 08:03:22;;;;;;;14.67;5.20;;;7.30;99.90;;;;;;5075208;28;20134;-72
2023/12/09 08:05:48;;;;;;;22.50;6.45;;;7.20;99.90;;;;;;5086019;28;20035;-72
2023/12/09 08:08:13;;;;;;;24.83;6.13;;;7.30;99.90;;;;;;5080948;28;20036;-72
2023/12/09 08:10:39;;;;;;;13.50;4.37;;;7.30;99.90;;;;;;5080727;28;20092;-72
2023/12/09 08:13:05;;;;;;;24.40;5.13;;;7.30;99.90;;;;;;5087333;28;20416;-72
2023/12/09 08:15:31;;;;;;;18.55;5.10;;;7.30;99.90;;;;;;5090649;28;20040;-72
2023/12/09 08:17:59;;;;;;;17.63;4.87;;;7.30;99.90;;;;;;5076827;28;20051;-72
2023/12/09 08:20:28;;;;;;;15.32;5.40;;;7.30;99.90;;;;;;5086735;28;20504;-72
2023/12/09 08:22:53;;;;;;;13.53;4.93;;;7.30;99.90;;;;;;5089798;28;20035;-72
2023/12/09 08:25:19;;;;;;;15.67;5.60;;;7.40;99.90;;;;;;5073044;28;20573;-72
2023/12/09 08:27:45;;;;;;;14.30;4.90;;;7.30;99.90;;;;;;5080861;28;20067;-72
2023/12/09 08:30:12;;;;;;;18.77;4.40;;;7.30;99.90;;;;;;5084531;28;20036;-72
2023/12/09 08:32:41;;;;;;;22.27;5.53;;;7.40;99.90;;;;;;5083856;28;20035;-72
2023/12/09 08:35:09;;;;;;;15.48;4.68;;;7.30;99.90;;;;;;5080953;28;20048;-72
2023/12/09 08:37:35;;;;;;;20.73;6.13;;;7.30;99.90;;;;;;5082710;28;20420;-71
2023/12/09 08:40:05;;;;;;;;;;;7.40;99.90;;;;;;5085831;28;20050;-71
2023/12/09 08:42:34;;;;;;;17.55;4.80;;;7.40;99.90;;;;;;5081642;28;19919;-71
2023/12/09 08:45:10;;;;;;;18.95;4.75;;;7.30;99.90;;;;;;5071477;28;20032;-72
2023/12/09 08:47:36;;;;;;;21.88;4.78;;;7.40;99.90;;;;;;5070090;28;20484;-71
2023/12/09 08:50:05;;;;;;;16.35;5.05;;;7.40;99.90;;;;;;5062334;28;20137;-71
2023/12/09 08:52:37;;;;;;;15.25;4.85;;;7.40;99.90;;;;;;5079497;28;20052;-72
2023/12/09 08:55:05;;;;;;;24.45;5.75;;;7.40;99.90;;;;;;5081564;28;20127;-71
2023/12/09 08:57:31;;;;;;;18.90;5.65;;;7.40;99.90;;;;;;5082030;28;20048;-71
2023/12/09 08:59:59;;;;;;;19.42;5.50;;;7.40;99.90;;;;;;5080219;28;20143;-71
2023/12/09 09:02:26;;;;;;;17.27;5.47;;;7.40;99.90;;;;;;5085739;28;20202;-71
2023/12/09 09:04:52;;;;;;;25.63;6.22;;;7.40;99.90;;;;;;5080845;28;20040;-71
2023/12/09 09:07:18;;;;;;;18.83;5.03;;;7.40;99.90;;;;;;5081613;28;20042;-72
2023/12/09 09:09:44;;;;;;;13.25;4.20;;;7.40;99.90;;;;;;5080263;28;20089;-71
2023/12/09 09:12:10;;;;;;;17.37;4.17;;;7.50;99.90;;;;;;5090273;28;20056;-71
2023/12/09 09:14:36;;;;;;;12.90;4.83;;;7.50;99.90;;;;;;5083685;28;20225;-71
2023/12/09 09:17:05;;;;;;;19.02;4.53;;;7.50;99.90;;;;;;5083520;28;20135;-72
2023/12/09 09:19:34;;;;;;;18.95;5.65;;;7.50;99.90;;;;;;5083097;28;20439;-71
2023/12/09 09:21:59;;;;;;;11.93;3.75;;;7.50;99.90;;;;;;5083886;28;20051;-71
2023/12/09 09:24:25;;;;;;;13.60;4.10;;;7.50;99.90;;;;;;5085025;28;20119;-71
2023/12/09 09:26:54;;;;;;;14.15;4.40;;;7.50;99.90;;;;;;5079961;28;20028;-72
2023/12/09 09:29:22;;;;;;;19.87;4.33;;;7.50;99.90;;;;;;5085529;28;20526;-71
2023/12/09 09:31:48;;;;;;;21.25;4.90;;;7.50;99.90;;;;;;5083541;28;20414;-71
2023/12/09 09:34:14;;;;;;;15.97;4.33;;;7.50;99.90;;;;;;5085148;28;20044;-72
2023/12/09 09:36:39;;;;;;;18.50;4.37;;;7.60;99.90;;;;;;5068154;28;20101;-71
2023/12/09 09:39:06;;;;;;;11.70;3.77;;;7.50;99.90;;;;;;5085661;28;20465;-71
2023/12/09 09:41:46;;;;;;;10.68;4.45;;;7.50;99.90;;;;;;5087682;28;20499;-72
2023/12/09 09:44:17;;;;;;;14.00;5.20;;;7.50;99.90;;;;;;5085026;28;20317;-71
2023/12/09 09:46:44;;;;;;;11.80;4.18;;;7.50;99.90;;;;;;5080648;28;20203;-71
2023/12/09 09:49:11;;;;;;;11.05;3.47;;;7.50;99.90;;;;;;5091477;28;20047;-71
2023/12/09 09:51:41;;;;;;;15.98;4.00;;;7.50;99.90;;;;;;5078689;28;20669;-71
2023/12/09 09:54:19;;;;;;;12.38;3.85;;;7.50;99.90;;;;;;5084694;28;20043;-71
2023/12/09 09:56:45;;;;;;;16.90;4.22;;;7.50;99.90;;;;;;5080325;28;20067;-71
2023/12/09 09:59:14;;;;;;;21.65;4.80;;;7.50;99.90;;;;;;5079108;28;20036;-71
2023/12/09 10:01:41;;;;;;;14.30;4.22;;;7.50;99.90;;;;;;5078183;28;20484;-71
2023/12/09 10:04:06;;;;;;;17.02;4.70;;;7.50;99.90;;;;;;5081730;28;20043;-71
2023/12/09 10:06:34;;;;;;;13.30;3.90;;;7.50;99.90;;;;;;5061128;28;20035;-71
2023/12/09 10:08:59;;;;;;;14.82;3.83;;;7.50;99.90;;;;;;5088526;28;20491;-72
2023/12/09 10:11:25;;;;;;;20.27;4.03;;;7.50;99.90;;;;;;5087578;28;20092;-72
2023/12/09 10:13:54;;;;;;;10.35;3.15;;;7.60;99.90;;;;;;5082756;28;20036;-72
2023/12/09 10:16:19;;;;;;;17.25;3.45;;;7.60;99.90;;;;;;5083568;28;20102;-72
2023/12/09 10:18:48;;;;;;;20.63;3.27;;;7.60;99.90;;;;;;5083011;28;20047;-72
2023/12/09 10:21:15;;;;;;;10.73;3.67;;;7.60;99.90;;;;;;5082589;28;20127;-71
2023/12/09 10:23:44;;;;;;;15.13;3.95;;;7.60;99.90;;;;;;5087891;28;20434;-72
2023/12/09 10:26:09;;;;;;;14.85;3.17;;;7.60;99.90;;;;;;5083273;28;20031;-72
2023/12/09 10:28:35;;;;;;;10.30;4.17;;;7.70;99.90;;;;;;5087570;28;20314;-72
2023/12/09 10:31:04;;;;;;;11.18;4.35;;;7.70;99.90;;;;;;5086257;28;20039;-71
2023/12/09 10:33:33;;;;;;;15.25;3.28;;;7.70;99.90;;;;;;5075212;28;20048;-71
2023/12/09 10:36:00;;;;;;;15.52;2.85;;;7.70;99.90;;;;;;5085222;28;20065;-72
2023/12/09 10:38:26;;;;;;;;;;;7.70;99.90;;;;;;5066853;28;20044;-71
2023/12/09 10:40:53;;;;;;;13.13;2.67;;;7.70;99.90;;;;;;5084010;28;19971;-72
2023/12/09 10:43:23;;;;;;;15.27;3.20;;;7.80;99.90;;;;;;5081872;28;20040;-71
2023/12/09 10:45:48;;;;;;;12.20;2.75;;;7.80;99.90;;;;;;5085380;28;20040;-71
2023/12/09 10:48:14;;;;;;;12.77;2.80;;;7.80;99.90;;;;;;5082328;28;20444;-71
2023/12/09 10:50:45;;;;;;;11.60;3.10;;;7.90;99.90;;;;;;5074912;28;20252;-72
2023/12/09 10:53:10;;;;;;;8.60;2.45;;;7.80;99.90;;;;;;5078745;28;20046;-72
2023/12/09 10:55:36;;;;;;;14.65;3.50;;;7.80;99.90;;;;;;5081809;28;20039;-72
2023/12/09 10:58:05;;;;;;;7.43;2.63;;;7.80;99.90;;;;;;5078349;28;20093;-72
2023/12/09 11:00:36;;;;;;;6.63;2.75;;;7.90;99.90;;;;;;5099486;27;20477;-71
2023/12/09 11:03:02;;;;;;;14.82;3.35;;;7.90;99.90;;;;;;5083757;28;20541;-72
2023/12/09 11:05:34;;;;;;;9.82;2.25;;;7.90;99.90;;;;;;5084804;28;20036;-72
2023/12/09 11:08:00;;;;;;;9.38;2.28;;;7.90;99.90;;;;;;5071678;28;20052;-71
2023/12/09 11:10:27;;;;;;;12.27;3.67;;;7.90;99.90;;;;;;5082877;28;20063;-71
2023/12/09 11:12:52;;;;;;;12.32;2.65;;;8.00;99.90;;;;;;5079488;28;20079;-71
2023/12/09 11:15:28;;;;;;;16.50;3.00;;;8.00;99.90;;;;;;5088021;28;20100;-71
2023/12/09 11:17:54;;;;;;;10.75;2.72;;;7.90;99.90;;;;;;5078639;28;20119;-70
2023/12/09 11:20:20;;;;;;;8.70;2.67;;;7.90;99.90;;;;;;5085289;28;20453;-71
2023/12/09 11:22:46;;;;;;;8.65;2.22;;;7.90;99.90;;;;;;5078739;28;20048;-71
2023/12/09 11:25:22;;;;;;;9.75;2.35;;;7.90;99.90;;;;;;5076814;28;20216;-71
2023/12/09 11:27:58;;;;;;;13.55;2.00;;;8.00;99.90;;;;;;5084741;28;20381;-71
2023/12/09 11:30:39;;;;;;;5.55;2.20;;;8.00;99.90;;;;;;5080568;28;20043;-71
2023/12/09 11:33:05;;;;;;;8.18;2.58;;;8.00;99.90;;;;;;5082345;28;20052;-72
2023/12/09 11:35:33;;;;;;;9.53;2.40;;;8.00;99.90;;;;;;5077258;28;20396;-72
2023/12/09 11:37:59;;;;;;;10.25;1.92;;;8.00;99.90;;;;;;5069279;28;20044;-71
2023/12/09 11:40:28;;;;;;;9.07;1.80;;;8.00;99.90;;;;;;5078464;28;20065;-71
2023/12/09 11:42:55;;;;;;;6.32;1.98;;;8.00;99.90;;;;;;5077412;28;20074;-71
2023/12/09 11:45:23;;;;;;;8.88;2.22;;;8.00;99.90;;;;;;5074895;28;20043;-71
2023/12/09 11:47:50;;;;;;;6.63;2.20;;;8.00;99.90;;;;;;5079212;28;20040;-71
2023/12/09 11:50:16;;;;;;;10.88;2.67;;;8.00;99.90;;;;;;5080605;28;20036;-71
2023/12/09 11:52:43;;;;;;;10.93;2.25;;;8.00;99.90;;;;;;5077808;28;20086;-72
2023/12/09 11:55:12;;;;;;;9.93;1.88;;;8.00;99.90;;;;;;5099061;27;20051;-71
2023/12/09 11:57:41;;;;;;;8.45;2.50;;;8.00;99.90;;;;;;5078739;28;20046;-71
2023/12/09 12:00:15;;;;;;;5.72;2.17;;;8.00;99.90;;;;;;5075031;28;20044;-71
2023/12/09 12:02:44;;;;;;;8.20;2.65;;;8.00;99.90;;;;;;5075134;28;20127;-72
2023/12/09 12:05:14;;;;;;;4.75;2.08;;;8.00;99.90;;;;;;5084082;28;20201;-71
2023/12/09 12:07:39;;;;;;;7.88;2.38;;;8.00;99.90;;;;;;5077655;28;20119;-71
2023/12/09 12:10:07;;;;;;;8.10;1.60;;;8.00;99.90;;;;;;5082432;28;20127;-71
2023/12/09 12:12:33;;;;;;;10.13;1.83;;;8.00;99.90;;;;;;5085124;28;20059;-71
2023/12/09 12:15:00;;;;;;;6.07;1.65;;;7.90;99.90;;;;;;5080954;28;20433;-72
2023/12/09 12:17:28;;;;;;;8.25;1.50;;;8.00;99.90;;;;;;5078364;28;20055;-71
2023/12/09 12:19:55;;;;;;;5.18;1.63;;;8.00;99.90;;;;;;5078956;28;20047;-71
2023/12/09 12:22:22;;;;;;;9.27;2.50;;;8.00;99.90;;;;;;5056544;28;20036;-71
2023/12/09 12:24:53;;;;;;;8.38;1.98;;;8.00;99.90;;;;;;5076743;28;20090;-71
2023/12/09 12:27:19;;;;;;;13.48;2.03;;;8.00;99.90;;;;;;5075289;28;20158;-71
2023/12/09 12:29:47;;;;;;;6.17;1.53;;;8.00;99.90;;;;;;5075797;28;20044;-71
2023/12/09 12:32:14;;;;;;;7.63;1.95;;;8.00;99.90;;;;;;5075748;28;20190;-71
2023/12/09 12:34:46;;;;;;;6.75;1.95;;;8.00;99.90;;;;;;5079557;28;20039;-71
2023/12/09 12:37:11;;;;;;;6.53;1.75;;;7.90;99.90;;;;;;5085709;28;20068;-71
2023/12/09 12:39:40;;;;;;;10.77;2.80;;;8.00;99.90;;;;;;5084382;28;20082;-71
2023/12/09 12:42:06;;;;;;;6.47;1.77;;;7.90;99.90;;;;;;5074153;28;20312;-72
2023/12/09 12:44:32;;;;;;;10.95;2.15;;;7.90;99.90;;;;;;5079023;28;20044;-72
2023/12/09 12:46:58;;;;;;;7.55;2.20;;;7.90;99.90;;;;;;5082415;28;20075;-72